createdAt,value
2022-12-01T00:00:24.348Z,21.42
2022-12-01T00:03:26.249Z,21.48
2022-12-01T00:06:27.883Z,18.77
2022-12-01T00:09:48.018Z,21.73
2022-12-01T00:12:49.770Z,20.30
2022-12-01T00:15:51.333Z,20.92
2022-12-01T00:18:52.941Z,19.75
2022-12-01T00:21:54.596Z,18.88
2022-12-01T00:24:56.144Z,18.30
2022-12-01T00:27:57.786Z,18.35
2022-12-01T00:31:00.163Z,18.70
2022-12-01T00:34:02.487Z,20.40
2022-12-01T00:37:06.279Z,16.67
2022-12-01T00:40:08.477Z,22.03
2022-12-01T00:43:10.067Z,20.70
2022-12-01T00:46:11.651Z,19.55
2022-12-01T00:49:13.847Z,19.65
2022-12-01T00:52:16.118Z,21.48
2022-12-01T00:55:17.776Z,22.38
2022-12-01T00:58:19.412Z,18.20
2022-12-01T01:01:21.117Z,19.13
2022-12-01T01:04:22.818Z,19.83
2022-12-01T01:07:24.445Z,19.05
2022-12-01T01:10:26.019Z,19.33
2022-12-01T01:13:27.775Z,22.20
2022-12-01T01:16:29.430Z,19.05
2022-12-01T01:19:31.033Z,19.08
2022-12-01T01:22:32.602Z,19.77
2022-12-01T01:25:34.165Z,19.90
2022-12-01T01:28:36.061Z,20.25
2022-12-01T01:31:41.136Z,17.40
2022-12-01T01:34:42.681Z,19.92
2022-12-01T01:37:44.294Z,18.58
2022-12-01T01:40:46.262Z,19.77
2022-12-01T01:43:51.805Z,19.23
2022-12-01T01:46:57.870Z,18.42
2022-12-01T01:50:05.245Z,18.05
2022-12-01T01:53:11.193Z,17.17
2022-12-01T01:56:12.832Z,16.85
2022-12-01T01:59:16.265Z,18.05
2022-12-01T02:02:21.931Z,21.03
2022-12-01T02:05:25.547Z,21.35
2022-12-01T02:08:27.124Z,17.25
2022-12-01T02:11:48.510Z,16.27
2022-12-01T02:15:17.038Z,18.45
2022-12-01T02:18:22.829Z,19.40
2022-12-01T02:21:27.351Z,18.15
2022-12-01T02:24:50.260Z,17.65
2022-12-01T02:28:05.864Z,18.27
2022-12-01T02:31:36.610Z,19.65
2022-12-01T02:34:43.716Z,17.73
2022-12-01T02:38:10.239Z,16.98
2022-12-01T02:41:23.150Z,18.58
2022-12-01T02:44:34.410Z,18.77
2022-12-01T02:47:36.902Z,17.70
2022-12-01T02:50:39.049Z,16.52
2022-12-01T02:53:40.911Z,19.00
2022-12-01T02:56:44.381Z,19.25
2022-12-01T02:59:48.836Z,19.25
2022-12-01T03:03:05.838Z,19.08
2022-12-01T03:06:24.078Z,18.30
2022-12-01T03:09:49.162Z,17.63
2022-12-01T03:13:18.422Z,16.58
2022-12-01T03:16:27.430Z,17.50
2022-12-01T03:19:42.324Z,17.40
2022-12-01T03:22:48.316Z,18.17
2022-12-01T03:25:51.936Z,17.33
2022-12-01T03:28:55.460Z,16.77
2022-12-01T03:32:05.812Z,19.55
2022-12-01T03:35:18.242Z,19.15
2022-12-01T03:38:23.924Z,17.40
2022-12-01T03:41:28.031Z,17.67
2022-12-01T03:44:45.635Z,18.25
2022-12-01T03:47:47.236Z,16.50
2022-12-01T03:50:52.192Z,17.30
2022-12-01T03:54:13.107Z,20.38
2022-12-01T03:57:17.808Z,18.52
2022-12-01T04:00:19.523Z,18.35
2022-12-01T04:03:24.262Z,18.63
2022-12-01T04:06:25.878Z,15.73
2022-12-01T04:09:27.539Z,19.20
2022-12-01T04:12:33.208Z,21.15
2022-12-01T04:15:34.780Z,19.13
2022-12-01T04:18:36.434Z,22.23
2022-12-01T04:21:38.027Z,19.48
2022-12-01T04:24:39.605Z,19.73
2022-12-01T04:27:41.203Z,19.52
2022-12-01T04:30:42.744Z,19.85
2022-12-01T04:33:44.309Z,16.17
2022-12-01T04:36:45.934Z,20.60
2022-12-01T04:39:47.923Z,22.47
2022-12-01T04:42:49.811Z,18.42
2022-12-01T04:45:51.383Z,19.38
2022-12-01T04:48:53.046Z,18.00
2022-12-01T04:51:54.812Z,20.67
2022-12-01T04:54:59.112Z,19.25
2022-12-01T04:58:02.499Z,19.98
2022-12-01T05:01:12.083Z,20.67
2022-12-01T05:04:14.104Z,18.65
2022-12-01T05:07:15.741Z,20.27
2022-12-01T05:10:19.130Z,18.70
2022-12-01T05:13:20.886Z,19.42
2022-12-01T05:16:24.708Z,20.13
2022-12-01T05:19:44.898Z,21.97
2022-12-01T05:23:05.007Z,21.02
2022-12-01T05:26:08.314Z,21.30
2022-12-01T05:29:10.079Z,19.05
2022-12-01T05:32:11.672Z,18.55
2022-12-01T05:35:13.242Z,20.15
2022-12-01T05:38:14.840Z,21.48
2022-12-01T05:41:16.457Z,21.63
2022-12-01T05:44:18.186Z,18.33
2022-12-01T05:47:19.767Z,18.15
2022-12-01T05:50:21.587Z,20.27
2022-12-01T05:53:23.240Z,20.95
2022-12-01T05:56:24.870Z,21.95
2022-12-01T05:59:26.590Z,20.48
2022-12-01T06:02:28.168Z,23.33
2022-12-01T06:05:29.706Z,19.95
2022-12-01T06:08:31.298Z,21.20
2022-12-01T06:11:32.874Z,21.70
2022-12-01T06:14:34.449Z,23.40
2022-12-01T06:17:40.139Z,21.15
2022-12-01T06:20:42.110Z,21.23
2022-12-01T06:23:43.690Z,23.58
2022-12-01T06:26:45.380Z,26.42
2022-12-01T06:29:46.957Z,23.33
2022-12-01T06:32:49.101Z,22.15
2022-12-01T06:36:00.443Z,22.27
2022-12-01T06:39:02.069Z,22.30
2022-12-01T06:42:03.895Z,21.43
2022-12-01T06:45:05.953Z,22.13
2022-12-01T06:48:08.546Z,25.75
2022-12-01T06:51:11.076Z,22.53
2022-12-01T06:54:12.995Z,23.83
2022-12-01T06:57:14.726Z,21.60
2022-12-01T07:00:16.997Z,24.77
2022-12-01T07:03:18.989Z,21.15
2022-12-01T07:06:20.828Z,22.90
2022-12-01T07:09:22.471Z,22.17
2022-12-01T07:12:24.219Z,21.73
2022-12-01T07:15:26.224Z,20.17
2022-12-01T07:18:28.010Z,23.23
2022-12-01T07:21:29.636Z,20.73
2022-12-01T07:24:31.399Z,21.65
2022-12-01T07:27:32.998Z,19.48
2022-12-01T07:30:34.662Z,17.95
2022-12-01T07:33:36.392Z,19.92
2022-12-01T07:36:38.080Z,19.80
2022-12-01T07:39:39.856Z,21.17
2022-12-01T07:42:41.972Z,22.40
2022-12-01T07:45:43.712Z,20.75
2022-12-01T07:48:45.359Z,21.67
2022-12-01T07:51:47.218Z,22.63
2022-12-01T07:54:48.975Z,18.95
2022-12-01T07:57:51.563Z,22.65
2022-12-01T08:00:53.561Z,22.00
2022-12-01T08:03:56.600Z,18.80
2022-12-01T08:06:58.163Z,21.58
2022-12-01T08:09:59.758Z,21.38
2022-12-01T08:13:01.366Z,20.70
2022-12-01T08:16:05.090Z,21.23
2022-12-01T08:19:06.703Z,20.70
2022-12-01T08:22:08.344Z,19.00
2022-12-01T08:25:09.997Z,21.70
2022-12-01T08:28:11.707Z,21.52
2022-12-01T08:31:19.048Z,21.85
2022-12-01T08:34:20.750Z,20.90
2022-12-01T08:37:22.366Z,19.70
2022-12-01T08:40:23.996Z,23.17
2022-12-01T08:43:56.041Z,20.90
2022-12-01T08:46:47.286Z,19.63
2022-12-01T08:49:49.311Z,20.63
2022-12-01T08:52:51.116Z,18.52
2022-12-01T08:55:52.824Z,23.55
2022-12-01T08:58:54.539Z,19.63
2022-12-01T09:01:57.440Z,19.58
2022-12-01T09:04:59.296Z,21.10
2022-12-01T09:08:19.550Z,19.25
2022-12-01T09:11:21.198Z,22.17
2022-12-01T09:14:23.099Z,20.98
2022-12-01T09:17:24.742Z,19.27
2022-12-01T09:20:26.388Z,20.20
2022-12-01T09:23:28.323Z,21.20
2022-12-01T09:26:30.193Z,21.67
2022-12-01T09:29:31.863Z,22.10
2022-12-01T09:32:33.563Z,22.55
2022-12-01T09:35:35.111Z,21.38
2022-12-01T09:38:37.526Z,20.93
2022-12-01T09:41:49.730Z,20.70
2022-12-01T09:44:52.664Z,21.17
2022-12-01T09:47:54.870Z,19.58
2022-12-01T09:50:56.530Z,21.00
2022-12-01T09:53:59.193Z,19.40
2022-12-01T09:57:00.892Z,21.90
2022-12-01T10:00:06.905Z,22.30
2022-12-01T10:03:33.064Z,21.23
2022-12-01T10:06:56.721Z,19.63
2022-12-01T10:09:59.939Z,21.15
2022-12-01T10:13:01.651Z,19.65
2022-12-01T10:16:11.134Z,26.63
2022-12-01T10:19:22.887Z,18.85
2022-12-01T10:23:02.036Z,20.33
2022-12-01T10:26:14.182Z,18.02
2022-12-01T10:29:28.462Z,19.30
2022-12-01T10:32:42.654Z,21.35
2022-12-01T10:35:44.292Z,23.50
2022-12-01T10:38:46.097Z,18.98
2022-12-01T10:41:48.928Z,22.67
2022-12-01T10:44:50.642Z,19.42
2022-12-01T10:48:10.497Z,18.90
2022-12-01T10:51:16.101Z,19.90
2022-12-01T10:54:18.032Z,20.67
2022-12-01T10:57:19.607Z,20.70
2022-12-01T11:03:58.901Z,20.55
2022-12-01T11:07:01.223Z,20.95
2022-12-01T11:10:19.733Z,19.38
2022-12-01T11:13:23.882Z,20.53
2022-12-01T11:16:37.782Z,20.45
2022-12-01T11:19:39.887Z,20.50
2022-12-01T11:22:41.936Z,17.67
2022-12-01T11:26:03.890Z,18.17
2022-12-01T11:29:07.808Z,21.10
2022-12-01T11:32:21.992Z,21.25
2022-12-01T11:35:25.732Z,21.05
2022-12-01T11:38:31.029Z,20.30
2022-12-01T11:41:32.605Z,20.50
2022-12-01T11:44:50.852Z,21.00
2022-12-01T11:48:29.699Z,20.50
2022-12-01T11:51:37.880Z,18.88
2022-12-01T11:54:39.563Z,19.23
2022-12-01T11:57:42.806Z,21.42
2022-12-01T12:00:50.706Z,19.08
2022-12-01T12:04:07.581Z,20.50
2022-12-01T12:07:33.995Z,20.65
2022-12-01T12:10:44.852Z,21.00
2022-12-01T12:14:32.281Z,23.98
2022-12-01T12:17:44.345Z,21.63
2022-12-01T12:21:08.510Z,20.50
2022-12-01T12:24:16.057Z,21.30
2022-12-01T12:27:36.355Z,21.95
2022-12-01T12:30:46.616Z,20.02
2022-12-01T12:34:00.611Z,17.65
2022-12-01T12:37:19.697Z,20.85
2022-12-01T12:40:30.550Z,21.58
2022-12-01T12:43:35.333Z,20.98
2022-12-01T12:47:03.367Z,23.97
2022-12-01T12:50:26.333Z,22.00
2022-12-01T12:53:31.542Z,21.92
2022-12-01T12:56:33.143Z,19.52
2022-12-01T12:59:40.995Z,19.30
2022-12-01T13:02:57.802Z,18.08
2022-12-01T13:06:02.595Z,19.45
2022-12-01T13:09:28.081Z,19.17
2022-12-01T13:12:31.460Z,17.08
2022-12-01T13:15:33.280Z,18.48
2022-12-01T13:18:53.274Z,18.63
2022-12-01T13:21:54.886Z,17.77
2022-12-01T13:24:56.674Z,17.07
2022-12-01T13:27:58.978Z,18.60
2022-12-01T13:31:05.903Z,20.38
2022-12-01T13:34:07.690Z,19.38
2022-12-01T13:37:10.035Z,18.20
2022-12-01T13:40:24.962Z,20.23
2022-12-01T13:43:26.524Z,18.27
2022-12-01T13:46:44.534Z,19.23
2022-12-01T13:49:47.747Z,18.73
2022-12-01T13:52:50.293Z,18.67
2022-12-01T13:56:08.376Z,19.42
2022-12-01T13:59:58.051Z,20.87
2022-12-01T14:03:19.323Z,19.65
2022-12-01T14:06:27.379Z,18.02
2022-12-01T14:09:33.197Z,19.95
2022-12-01T14:12:37.936Z,18.87
2022-12-01T14:15:42.556Z,17.40
2022-12-01T14:18:49.342Z,17.60
2022-12-01T14:21:52.405Z,17.05
2022-12-01T14:24:54.146Z,17.40
2022-12-01T14:28:03.183Z,16.65
2022-12-01T14:31:05.513Z,19.80
2022-12-01T14:34:18.936Z,18.95
2022-12-01T14:37:23.319Z,18.17
2022-12-01T14:40:25.606Z,19.42
2022-12-01T14:43:45.905Z,18.73
2022-12-01T14:47:01.832Z,18.70
2022-12-01T14:50:14.000Z,20.43
2022-12-01T14:53:23.915Z,17.45
2022-12-01T14:56:25.515Z,19.70
2022-12-01T14:59:27.420Z,18.75
2022-12-01T15:02:29.087Z,17.43
2022-12-01T15:05:32.478Z,18.88
2022-12-01T15:08:53.368Z,19.30
2022-12-01T15:11:58.759Z,18.77
2022-12-01T15:15:00.531Z,22.00
2022-12-01T15:18:02.581Z,21.85
2022-12-01T15:21:12.190Z,21.25
2022-12-01T15:24:24.966Z,19.93
2022-12-01T15:27:30.983Z,20.50
2022-12-01T15:30:32.536Z,21.45
2022-12-01T15:33:37.205Z,21.23
2022-12-01T15:36:39.119Z,20.90
2022-12-01T15:40:00.895Z,22.88
2022-12-01T15:43:18.132Z,19.52
2022-12-01T15:46:23.188Z,23.23
2022-12-01T15:49:27.663Z,23.88
2022-12-01T15:52:29.337Z,20.70
2022-12-01T15:55:33.351Z,22.83
2022-12-01T15:58:40.146Z,22.30
2022-12-01T16:01:42.659Z,23.25
2022-12-01T16:04:44.274Z,22.25
2022-12-01T16:11:14.582Z,21.67
2022-12-01T16:14:21.789Z,24.33
2022-12-01T16:17:24.193Z,23.60
2022-12-01T16:20:31.275Z,22.33
2022-12-01T16:23:32.876Z,22.45
2022-12-01T16:26:34.432Z,24.77
2022-12-01T16:29:56.601Z,26.30
2022-12-01T16:33:02.991Z,22.90
2022-12-01T16:36:04.773Z,24.23
2022-12-01T16:39:07.929Z,26.23
2022-12-01T16:42:17.339Z,25.80
2022-12-01T16:45:19.305Z,28.58
2022-12-01T16:48:20.934Z,24.30
2022-12-01T16:51:29.887Z,31.33
2022-12-01T16:54:37.352Z,29.10
2022-12-01T16:57:38.959Z,28.17
2022-12-01T17:00:40.749Z,26.33
2022-12-01T17:03:42.415Z,28.50
2022-12-01T17:06:43.979Z,32.17
2022-12-01T17:09:45.636Z,25.52
2022-12-01T17:12:47.300Z,30.73
2022-12-01T17:15:49.767Z,28.60
2022-12-01T17:18:51.440Z,29.38
2022-12-01T17:21:53.319Z,31.30
2022-12-01T17:24:55.611Z,31.63
2022-12-01T17:27:57.222Z,31.92
2022-12-01T17:31:02.496Z,33.22
2022-12-01T17:34:06.888Z,28.87
2022-12-01T17:37:08.503Z,32.33
2022-12-01T17:40:11.433Z,34.90
2022-12-01T17:43:13.113Z,32.10
2022-12-01T17:46:14.839Z,29.70
2022-12-01T17:49:16.451Z,33.40
2022-12-01T17:52:18.104Z,30.40
2022-12-01T17:55:19.774Z,31.60
2022-12-01T17:58:21.682Z,31.05
2022-12-01T18:01:29.797Z,33.35
2022-12-01T18:04:32.068Z,32.13
2022-12-01T18:07:33.710Z,31.25
2022-12-01T18:10:35.347Z,31.30
2022-12-01T18:13:38.349Z,30.40
2022-12-01T18:16:39.982Z,30.40
2022-12-01T18:19:41.556Z,32.20
2022-12-01T18:22:43.133Z,34.25
2022-12-01T18:25:44.716Z,30.50
2022-12-01T18:28:46.340Z,33.92
2022-12-01T18:31:47.967Z,32.05
2022-12-01T18:34:49.802Z,32.60
2022-12-01T18:37:51.707Z,30.35
2022-12-01T18:40:57.275Z,34.05
2022-12-01T18:43:58.858Z,35.30
2022-12-01T18:47:02.698Z,35.03
2022-12-01T18:50:04.791Z,34.83
2022-12-01T18:53:06.553Z,34.25
2022-12-01T18:56:11.788Z,30.80
2022-12-01T18:59:16.853Z,34.40
2022-12-01T19:02:18.548Z,33.42
2022-12-01T19:05:20.277Z,34.57
2022-12-01T19:08:22.039Z,29.90
2022-12-01T19:11:23.731Z,28.20
2022-12-01T19:14:26.644Z,30.80
2022-12-01T19:17:28.221Z,31.73
2022-12-01T19:20:29.879Z,30.20
2022-12-01T19:23:31.612Z,26.55
2022-12-01T19:26:33.175Z,29.10
2022-12-01T19:29:34.867Z,33.38
2022-12-01T19:32:36.727Z,31.73
2022-12-01T19:35:38.264Z,30.42
2022-12-01T19:38:40.095Z,28.45
2022-12-01T19:41:41.672Z,29.15
2022-12-01T19:44:43.275Z,31.08
2022-12-01T19:47:44.893Z,32.53
2022-12-01T19:50:46.586Z,31.88
2022-12-01T19:53:48.341Z,30.02
2022-12-01T19:56:49.907Z,30.53
2022-12-01T19:59:51.674Z,29.42
2022-12-01T20:02:53.261Z,33.47
2022-12-01T20:05:54.920Z,35.58
2022-12-01T20:08:58.133Z,34.33
2022-12-01T20:11:59.726Z,30.85
2022-12-01T20:15:01.546Z,31.70
2022-12-01T20:18:03.212Z,32.37
2022-12-01T20:21:16.217Z,29.50
2022-12-01T20:24:19.975Z,29.65
2022-12-01T20:27:21.575Z,30.73
2022-12-01T20:30:23.248Z,28.80
2022-12-01T20:33:25.314Z,34.33
2022-12-01T20:36:27.131Z,32.55
2022-12-01T20:39:31.446Z,37.42
2022-12-01T20:42:33.121Z,39.15
2022-12-01T20:45:34.778Z,35.67
2022-12-01T20:48:36.652Z,40.47
2022-12-01T20:51:38.309Z,34.78
2022-12-01T20:54:41.815Z,35.33
2022-12-01T20:57:43.365Z,39.97
2022-12-01T21:00:45.060Z,35.00
2022-12-01T21:03:47.017Z,38.95
2022-12-01T21:06:50.077Z,34.55
2022-12-01T21:09:51.856Z,35.92
2022-12-01T21:13:13.691Z,35.85
2022-12-01T21:16:28.134Z,36.95
2022-12-01T21:19:36.393Z,33.67
2022-12-01T21:22:37.988Z,34.97
2022-12-01T21:25:39.875Z,33.25
2022-12-01T21:28:43.064Z,32.43
2022-12-01T21:31:45.254Z,35.75
2022-12-01T21:34:47.589Z,29.73
2022-12-01T21:37:49.640Z,30.92
2022-12-01T21:40:51.255Z,30.83
2022-12-01T21:43:54.157Z,33.88
2022-12-01T21:46:56.789Z,30.55
2022-12-01T21:49:59.390Z,28.13
2022-12-01T21:53:01.322Z,31.75
2022-12-01T21:56:03.107Z,30.42
2022-12-01T21:59:22.296Z,31.15
2022-12-01T22:02:32.318Z,30.70
2022-12-01T22:05:37.425Z,28.45
2022-12-01T22:08:41.302Z,29.65
2022-12-01T22:11:44.566Z,31.50
2022-12-01T22:14:46.132Z,29.90
2022-12-01T22:17:47.842Z,35.65
2022-12-01T22:20:49.413Z,35.43
2022-12-01T22:24:14.563Z,39.20
2022-12-01T22:27:31.559Z,34.42
2022-12-01T22:30:33.171Z,38.45
2022-12-01T22:33:34.721Z,38.65
2022-12-01T22:36:36.302Z,42.97
2022-12-01T22:39:37.839Z,41.63
2022-12-01T22:42:39.398Z,42.30
2022-12-01T22:45:41.111Z,39.30
2022-12-01T22:48:45.222Z,42.25
2022-12-01T22:51:50.732Z,42.03
2022-12-01T22:54:52.517Z,38.92
2022-12-01T22:57:54.206Z,44.17
2022-12-01T23:00:57.976Z,41.58
2022-12-01T23:04:22.949Z,40.92
2022-12-01T23:07:35.536Z,41.15
2022-12-01T23:10:37.286Z,39.65
2022-12-01T23:13:38.834Z,41.57
2022-12-01T23:16:40.435Z,42.33
2022-12-01T23:19:42.078Z,41.78
2022-12-01T23:22:43.685Z,43.13
2022-12-01T23:25:45.670Z,39.10
2022-12-01T23:28:47.224Z,40.78
2022-12-01T23:31:48.896Z,38.13
2022-12-01T23:34:51.941Z,41.70
2022-12-01T23:37:56.160Z,40.85
2022-12-01T23:41:00.276Z,35.50
2022-12-01T23:44:05.501Z,40.70
2022-12-01T23:47:18.812Z,39.55
2022-12-01T23:50:22.528Z,38.00
2022-12-01T23:53:31.261Z,37.40
2022-12-01T23:56:32.848Z,34.40
2022-12-01T23:59:34.471Z,38.15
